createdAt,value
2019-04-14T00:04:59.443Z,0.31
2019-04-14T00:14:59.814Z,0.43
2019-04-14T00:24:59.867Z,0.50
2019-04-14T00:34:59.379Z,0.27
2019-04-14T00:44:58.938Z,0.17
2019-04-14T00:54:58.948Z,0.17
2019-04-14T01:05:00.040Z,0.38
2019-04-14T01:14:58.959Z,0.46
2019-04-14T01:25:00.038Z,0.62
2019-04-14T01:34:58.993Z,0.40
2019-04-14T01:44:59.257Z,0.44
2019-04-14T01:54:59.003Z,0.50
2019-04-14T02:04:59.628Z,0.45
2019-04-14T02:14:58.954Z,0.34
2019-04-14T02:24:59.245Z,0.27
2019-04-14T02:35:31.774Z,0.61
2019-04-14T02:45:32.239Z,0.40
2019-04-14T02:55:15.851Z,0.33
2019-04-14T03:05:23.779Z,0.38
2019-04-14T03:15:28.050Z,0.42
2019-04-14T03:25:21.140Z,0.52
2019-04-14T03:35:50.981Z,0.29
2019-04-14T03:45:26.137Z,0.48
2019-04-14T03:55:16.349Z,0.36
2019-04-14T04:04:59.835Z,0.63
2019-04-14T04:14:59.814Z,0.67
2019-04-14T04:24:58.941Z,0.36
2019-04-14T04:34:59.909Z,0.34
2019-04-14T04:44:59.591Z,0.50
2019-04-14T04:55:00.118Z,0.35
2019-04-14T05:04:59.114Z,0.62
2019-04-14T05:14:58.953Z,0.48
2019-04-14T05:24:59.296Z,0.33
2019-04-14T05:34:58.894Z,0.56
2019-04-14T05:44:59.998Z,0.46
2019-04-14T05:55:00.009Z,0.60
2019-04-14T06:04:59.323Z,0.62
2019-04-14T06:14:58.854Z,0.66
2019-04-14T06:24:58.918Z,0.62
2019-04-14T06:34:58.977Z,0.59
2019-04-14T06:44:59.995Z,0.55
2019-04-14T06:54:58.944Z,0.54
2019-04-14T07:04:58.960Z,0.55
2019-04-14T07:14:58.910Z,0.74
2019-04-14T07:24:58.919Z,0.55
2019-04-14T07:34:58.851Z,0.53
2019-04-14T07:44:58.928Z,0.51
2019-04-14T07:54:58.969Z,0.47
2019-04-14T08:04:58.924Z,0.96
2019-04-14T08:14:59.659Z,1.17
2019-04-14T08:24:58.864Z,1.26
2019-04-14T08:34:58.859Z,1.12
2019-04-14T08:44:58.888Z,1.50
2019-04-14T08:54:58.879Z,1.22
2019-04-14T09:04:58.821Z,1.19
2019-04-14T09:14:58.899Z,1.57
2019-04-14T09:24:58.851Z,1.32
2019-04-14T09:34:58.854Z,1.17
2019-04-14T09:44:58.842Z,1.91
2019-04-14T09:54:58.832Z,1.31
2019-04-14T10:04:58.907Z,1.48
2019-04-14T10:14:58.873Z,1.35
2019-04-14T10:24:58.813Z,1.34
2019-04-14T10:34:58.904Z,1.85
2019-04-14T10:44:58.833Z,1.85
2019-04-14T10:54:58.821Z,1.44
2019-04-14T11:04:58.903Z,1.33
2019-04-14T11:14:58.888Z,1.44
2019-04-14T11:24:58.831Z,1.36
2019-04-14T11:34:58.887Z,1.51
2019-04-14T11:44:58.866Z,2.03
2019-04-14T11:54:58.831Z,1.68
2019-04-14T12:04:58.914Z,2.01
2019-04-14T12:14:58.947Z,1.10
2019-04-14T12:24:59.533Z,1.40
2019-04-14T12:34:58.921Z,1.47
2019-04-14T12:44:58.885Z,1.08
2019-04-14T12:54:58.844Z,2.26
2019-04-14T13:04:59.005Z,2.26
2019-04-14T13:14:58.850Z,1.53
2019-04-14T13:24:58.851Z,1.47
2019-04-14T13:34:58.899Z,2.70
2019-04-14T13:44:58.864Z,1.80
2019-04-14T13:54:58.851Z,1.40
2019-04-14T14:04:58.886Z,1.55
2019-04-14T14:14:58.901Z,1.95
2019-04-14T14:24:58.840Z,1.27
2019-04-14T14:34:59.712Z,0.91
2019-04-14T14:44:58.856Z,1.47
2019-04-14T14:54:59.739Z,1.59
2019-04-14T15:04:58.897Z,1.61
2019-04-14T15:14:58.868Z,1.58
2019-04-14T15:24:58.944Z,1.63
2019-04-14T15:34:58.896Z,1.69
2019-04-14T15:44:58.865Z,1.58
2019-04-14T15:54:58.831Z,1.39
2019-04-14T16:04:58.915Z,1.54
2019-04-14T16:14:58.876Z,1.39
2019-04-14T16:24:58.864Z,1.44
2019-04-14T16:34:58.903Z,1.30
2019-04-14T16:44:58.953Z,1.17
2019-04-14T16:54:58.861Z,1.35
2019-04-14T17:04:58.902Z,1.44
2019-04-14T17:14:58.867Z,1.28
2019-04-14T17:24:58.853Z,1.21
2019-04-14T17:34:58.900Z,1.42
2019-04-14T17:44:58.873Z,1.15
2019-04-14T17:54:58.835Z,1.32
2019-04-14T18:04:58.913Z,1.11
2019-04-14T18:14:58.875Z,1.48
2019-04-14T18:24:58.832Z,1.06
2019-04-14T18:34:58.937Z,0.77
2019-04-14T18:44:58.894Z,0.59
2019-04-14T18:54:59.685Z,0.46
2019-04-14T19:04:58.869Z,0.43
2019-04-14T19:14:58.850Z,0.75
2019-04-14T19:25:07.928Z,0.17
2019-04-14T19:34:58.878Z,0.12
2019-04-14T19:44:58.846Z,0.02
2019-04-14T19:54:58.931Z,0.18
2019-04-14T20:04:58.885Z,0.50
2019-04-14T20:14:58.820Z,0.80
2019-04-14T20:24:58.899Z,0.30
2019-04-14T20:34:58.865Z,0.24
2019-04-14T20:44:58.879Z,0.05
2019-04-14T20:54:58.914Z,0.30
2019-04-14T21:04:58.873Z,0.32
2019-04-14T21:14:58.880Z,0.64
2019-04-14T21:24:58.909Z,0.26
2019-04-14T21:34:59.017Z,0.39
2019-04-14T21:45:06.179Z,0.03
2019-04-14T21:55:01.414Z,0.46
2019-04-14T22:04:58.839Z,0.28
2019-04-14T22:14:58.838Z,0.07
2019-04-14T22:24:58.894Z,0.02
2019-04-14T22:34:58.841Z,0.00
2019-04-14T22:44:58.825Z,0.04
2019-04-14T22:54:58.920Z,0.00
2019-04-14T23:04:58.850Z,0.07
2019-04-14T23:14:58.809Z,0.04
2019-04-14T23:24:58.875Z,0.00
2019-04-14T23:34:58.932Z,0.21
2019-04-14T23:44:58.839Z,0.18
2019-04-14T23:54:59.731Z,0.11
